sensor_id;sensor_type;location;lat;lon;timestamp;pressure;altitude;pressure_sealevel;temperature;humidity
59411;BME280;45215;32.610;-115.482;2022-09-16T00:00:35;100717.94;;;22.84;49.23
59411;BME280;45215;32.610;-115.482;2022-09-16T00:03:01;100727.66;;;22.79;51.97
59411;BME280;45215;32.610;-115.482;2022-09-16T00:05:27;100726.66;;;23.08;55.03
59411;BME280;45215;32.610;-115.482;2022-09-16T00:07:53;100717.06;;;22.84;48.66
59411;BME280;45215;32.610;-115.482;2022-09-16T00:10:20;100725.16;;;22.77;52.48
59411;BME280;45215;32.610;-115.482;2022-09-16T00:12:46;100719.56;;;23.07;55.16
59411;BME280;45215;32.610;-115.482;2022-09-16T00:15:12;100716.81;;;23.00;49.96
59411;BME280;45215;32.610;-115.482;2022-09-16T00:17:38;100727.81;;;22.70;51.79
59411;BME280;45215;32.610;-115.482;2022-09-16T00:20:05;100713.06;;;23.01;55.09
59411;BME280;45215;32.610;-115.482;2022-09-16T00:22:32;100717.84;;;22.99;50.61
59411;BME280;45215;32.610;-115.482;2022-09-16T00:24:58;100720.69;;;22.69;51.00
59411;BME280;45215;32.610;-115.482;2022-09-16T00:27:23;100713.84;;;22.95;53.43
59411;BME280;45215;32.610;-115.482;2022-09-16T00:29:49;100718.56;;;23.14;51.17
59411;BME280;45215;32.610;-115.482;2022-09-16T00:32:15;100712.19;;;22.72;47.99
59411;BME280;45215;32.610;-115.482;2022-09-16T00:34:41;100712.56;;;22.91;53.40
59411;BME280;45215;32.610;-115.482;2022-09-16T00:37:06;100714.06;;;23.22;54.97
59411;BME280;45215;32.610;-115.482;2022-09-16T00:39:34;100718.56;;;23.43;55.52
59411;BME280;45215;32.610;-115.482;2022-09-16T00:42:00;100716.81;;;23.63;56.58
59411;BME280;45215;32.610;-115.482;2022-09-16T00:47:12;100712.19;;;23.98;57.64
59411;BME280;45215;32.610;-115.482;2022-09-16T00:49:38;100718.88;;;24.09;58.04
59411;BME280;45215;32.610;-115.482;2022-09-16T00:52:05;100719.19;;;24.21;58.22
59411;BME280;45215;32.610;-115.482;2022-09-16T00:54:32;100717.88;;;24.17;54.90
59411;BME280;45215;32.610;-115.482;2022-09-16T00:56:59;100720.09;;;23.52;49.51
59411;BME280;45215;32.610;-115.482;2022-09-16T00:59:26;100712.97;;;22.88;47.05
59411;BME280;45215;32.610;-115.482;2022-09-16T01:01:53;100712.31;;;22.43;45.03
59411;BME280;45215;32.610;-115.482;2022-09-16T01:04:27;100714.63;;;22.46;50.73
59411;BME280;45215;32.610;-115.482;2022-09-16T01:06:53;100711.97;;;22.67;48.62
59411;BME280;45215;32.610;-115.482;2022-09-16T01:09:20;100712.75;;;22.25;44.62
59411;BME280;45215;32.610;-115.482;2022-09-16T01:11:46;100713.78;;;21.88;43.23
59411;BME280;45215;32.610;-115.482;2022-09-16T01:14:16;100712.53;;;21.75;45.68
59411;BME280;45215;32.610;-115.482;2022-09-16T01:17:20;100715.75;;;22.15;47.01
59411;BME280;45215;32.610;-115.482;2022-09-16T01:19:56;100714.41;;;21.90;43.13
59411;BME280;45215;32.610;-115.482;2022-09-16T01:28:08;100725.03;;;21.91;45.48
59411;BME280;45215;32.610;-115.482;2022-09-16T01:42:14;100727.94;;;21.60;42.26
59411;BME280;45215;32.610;-115.482;2022-09-16T01:51:58;100729.84;;;21.81;44.44
59411;BME280;45215;32.610;-115.482;2022-09-16T01:54:30;100740.31;;;21.54;41.84
59411;BME280;45215;32.610;-115.482;2022-09-16T02:02:18;100740.75;;;21.73;47.71
59411;BME280;45215;32.610;-115.482;2022-09-16T02:04:50;100741.78;;;21.72;43.18
59411;BME280;45215;32.610;-115.482;2022-09-16T02:07:17;100749.69;;;21.44;41.35
59411;BME280;45215;32.610;-115.482;2022-09-16T02:09:56;100751.34;;;21.30;42.29
59411;BME280;45215;32.610;-115.482;2022-09-16T02:12:24;100762.47;;;21.65;46.75
59411;BME280;45215;32.610;-115.482;2022-09-16T02:14:53;100756.50;;;21.69;43.05
59411;BME280;45215;32.610;-115.482;2022-09-16T02:17:22;100756.03;;;21.51;40.29
59411;BME280;45215;32.610;-115.482;2022-09-16T02:20:00;100753.13;;;21.23;41.42
59411;BME280;45215;32.610;-115.482;2022-09-16T02:22:31;100760.69;;;21.57;46.31
59411;BME280;45215;32.610;-115.482;2022-09-16T02:24:59;100763.75;;;21.69;43.38
59411;BME280;45215;32.610;-115.482;2022-09-16T02:27:26;100772.31;;;21.43;40.41
59411;BME280;45215;32.610;-115.482;2022-09-16T02:30:02;100772.47;;;21.26;43.28
59411;BME280;45215;32.610;-115.482;2022-09-16T02:32:30;100774.09;;;21.65;47.21
59411;BME280;45215;32.610;-115.482;2022-09-16T02:34:56;100786.28;;;21.61;42.67
59411;BME280;45215;32.610;-115.482;2022-09-16T02:39:53;100784.53;;;21.15;43.67
59411;BME280;45215;32.610;-115.482;2022-09-16T02:42:22;100788.06;;;21.54;47.07
59411;BME280;45215;32.610;-115.482;2022-09-16T02:44:48;100794.75;;;21.58;43.42
59411;BME280;45215;32.610;-115.482;2022-09-16T02:48:00;100792.31;;;21.33;41.07
59411;BME280;45215;32.610;-115.482;2022-09-16T02:57:45;100806.94;;;21.39;41.71
59411;BME280;45215;32.610;-115.482;2022-09-16T03:02:36;100812.44;;;21.46;43.99
59411;BME280;45215;32.610;-115.482;2022-09-16T03:05:02;100815.81;;;21.77;44.31
59411;BME280;45215;32.610;-115.482;2022-09-16T03:07:28;100814.38;;;21.37;41.19
59411;BME280;45215;32.610;-115.482;2022-09-16T03:09:54;100814.88;;;20.94;40.70
59411;BME280;45215;32.610;-115.482;2022-09-16T03:14:53;100831.16;;;21.24;47.18
59411;BME280;45215;32.610;-115.482;2022-09-16T03:20:03;100827.28;;;21.04;40.05
59411;BME280;45215;32.610;-115.482;2022-09-16T03:22:44;100823.00;;;20.86;39.78
59411;BME280;45215;32.610;-115.482;2022-09-16T03:30:37;100833.50;;;21.27;41.14
59411;BME280;45215;32.610;-115.482;2022-09-16T03:33:08;100837.59;;;21.00;39.09
59411;BME280;45215;32.610;-115.482;2022-09-16T03:35:41;100839.56;;;20.83;40.20
59411;BME280;45215;32.610;-115.482;2022-09-16T03:38:09;100849.13;;;21.17;45.37
59411;BME280;45215;32.610;-115.482;2022-09-16T03:40:36;100849.94;;;21.55;46.67
59411;BME280;45215;32.610;-115.482;2022-09-16T03:43:09;100851.31;;;21.36;42.07
59411;BME280;45215;32.610;-115.482;2022-09-16T03:45:36;100845.47;;;21.02;39.72
59411;BME280;45215;32.610;-115.482;2022-09-16T03:48:02;100851.44;;;20.97;43.06
59411;BME280;45215;32.610;-115.482;2022-09-16T03:50:28;100860.13;;;21.30;46.20
59411;BME280;45215;32.610;-115.482;2022-09-16T03:52:54;100850.41;;;21.21;41.39
59411;BME280;45215;32.610;-115.482;2022-09-16T03:55:19;100851.94;;;20.92;38.92
59411;BME280;45215;32.610;-115.482;2022-09-16T03:57:45;100858.84;;;20.95;43.11
59411;BME280;45215;32.610;-115.482;2022-09-16T04:00:11;100850.00;;;21.32;46.29
59411;BME280;45215;32.610;-115.482;2022-09-16T04:02:37;100849.06;;;21.25;41.83
59411;BME280;45215;32.610;-115.482;2022-09-16T04:05:03;100848.44;;;20.92;39.33
59411;BME280;45215;32.610;-115.482;2022-09-16T04:07:30;100858.91;;;20.87;43.41
59411;BME280;45215;32.610;-115.482;2022-09-16T04:09:57;100855.75;;;21.29;46.87
59411;BME280;45215;32.610;-115.482;2022-09-16T04:12:23;100861.97;;;21.30;42.21
59411;BME280;45215;32.610;-115.482;2022-09-16T04:14:49;100857.81;;;20.96;39.38
59411;BME280;45215;32.610;-115.482;2022-09-16T04:17:15;100858.63;;;21.05;43.69
59411;BME280;45215;32.610;-115.482;2022-09-16T04:19:40;100860.06;;;21.38;46.36
59411;BME280;45215;32.610;-115.482;2022-09-16T04:22:06;100863.19;;;21.27;41.66
59411;BME280;45215;32.610;-115.482;2022-09-16T04:24:32;100856.81;;;20.97;39.80
59411;BME280;45215;32.610;-115.482;2022-09-16T04:26:58;100859.28;;;21.07;44.92
59411;BME280;45215;32.610;-115.482;2022-09-16T04:29:23;100865.06;;;21.42;45.96
59411;BME280;45215;32.610;-115.482;2022-09-16T04:31:49;100859.19;;;21.23;41.53
59411;BME280;45215;32.610;-115.482;2022-09-16T04:34:15;100857.19;;;20.94;40.31
59411;BME280;45215;32.610;-115.482;2022-09-16T04:36:41;100861.63;;;21.10;45.02
59411;BME280;45215;32.610;-115.482;2022-09-16T04:39:06;100862.59;;;21.40;46.37
59411;BME280;45215;32.610;-115.482;2022-09-16T04:41:32;100862.03;;;21.22;41.84
59411;BME280;45215;32.610;-115.482;2022-09-16T04:43:58;100863.41;;;20.94;42.55
59411;BME280;45215;32.610;-115.482;2022-09-16T04:46:25;100867.75;;;21.27;46.86
59411;BME280;45215;32.610;-115.482;2022-09-16T04:48:52;100864.38;;;21.48;45.09
59411;BME280;45215;32.610;-115.482;2022-09-16T04:51:18;100860.28;;;21.14;41.13
59411;BME280;45215;32.610;-115.482;2022-09-16T04:53:44;100856.59;;;21.07;44.65
59411;BME280;45215;32.610;-115.482;2022-09-16T04:58:40;100862.59;;;21.40;43.56
59411;BME280;45215;32.610;-115.482;2022-09-16T05:01:07;100858.63;;;21.05;41.72
59411;BME280;45215;32.610;-115.482;2022-09-16T05:03:40;100867.28;;;21.23;46.41
59411;BME280;45215;32.610;-115.482;2022-09-16T05:06:10;100871.91;;;21.52;47.18
59411;BME280;45215;32.610;-115.482;2022-09-16T05:08:36;100882.00;;;21.35;42.31
59411;BME280;45215;32.610;-115.482;2022-09-16T05:11:07;100880.03;;;21.06;42.58
59411;BME280;45215;32.610;-115.482;2022-09-16T05:13:33;100881.38;;;21.33;47.08
59411;BME280;45215;32.610;-115.482;2022-09-16T05:16:00;100880.38;;;21.49;45.68
59411;BME280;45215;32.610;-115.482;2022-09-16T05:18:26;100877.97;;;21.16;41.81
59411;BME280;45215;32.610;-115.482;2022-09-16T05:20:56;100879.38;;;21.04;45.03
59411;BME280;45215;32.610;-115.482;2022-09-16T05:23:21;100883.97;;;21.42;47.79
59411;BME280;45215;32.610;-115.482;2022-09-16T05:25:47;100881.94;;;21.44;44.61
59411;BME280;45215;32.610;-115.482;2022-09-16T05:28:13;100890.00;;;21.06;41.88
59411;BME280;45215;32.610;-115.482;2022-09-16T05:30:39;100889.59;;;21.17;46.48
59411;BME280;45215;32.610;-115.482;2022-09-16T05:33:05;100892.19;;;21.48;49.02
59411;BME280;45215;32.610;-115.482;2022-09-16T05:35:30;100889.09;;;21.36;43.58
59411;BME280;45215;32.610;-115.482;2022-09-16T05:37:57;100890.34;;;21.03;43.25
59411;BME280;45215;32.610;-115.482;2022-09-16T05:40:22;100901.97;;;21.26;48.04
59411;BME280;45215;32.610;-115.482;2022-09-16T05:42:48;100900.09;;;21.50;46.73
59411;BME280;45215;32.610;-115.482;2022-09-16T05:45:14;100894.25;;;21.23;42.56
59411;BME280;45215;32.610;-115.482;2022-09-16T05:47:40;100884.41;;;21.07;45.62
59411;BME280;45215;32.610;-115.482;2022-09-16T05:50:06;100889.72;;;21.38;48.63
59411;BME280;45215;32.610;-115.482;2022-09-16T05:52:32;100887.41;;;21.35;44.71
59411;BME280;45215;32.610;-115.482;2022-09-16T05:54:58;100881.25;;;21.04;41.95
59411;BME280;45215;32.610;-115.482;2022-09-16T05:57:24;100885.75;;;21.11;46.93
59411;BME280;45215;32.610;-115.482;2022-09-16T05:59:49;100891.72;;;21.45;48.79
59411;BME280;45215;32.610;-115.482;2022-09-16T06:02:15;100887.81;;;21.24;43.59
59411;BME280;45215;32.610;-115.482;2022-09-16T06:04:41;100886.19;;;20.92;43.27
59411;BME280;45215;32.610;-115.482;2022-09-16T06:07:07;100884.00;;;21.19;48.08
59411;BME280;45215;32.610;-115.482;2022-09-16T06:09:33;100887.34;;;21.44;47.47
59411;BME280;45215;32.610;-115.482;2022-09-16T06:11:59;100876.25;;;21.15;42.74
59411;BME280;45215;32.610;-115.482;2022-09-16T06:14:24;100881.56;;;21.01;44.88
59411;BME280;45215;32.610;-115.482;2022-09-16T06:16:50;100886.94;;;21.32;48.65
59411;BME280;45215;32.610;-115.482;2022-09-16T06:19:16;100879.81;;;21.39;45.50
59411;BME280;45215;32.610;-115.482;2022-09-16T06:21:43;100874.31;;;21.01;42.44
59411;BME280;45215;32.610;-115.482;2022-09-16T06:24:09;100874.81;;;21.05;46.88
59411;BME280;45215;32.610;-115.482;2022-09-16T06:26:36;100885.19;;;21.39;49.35
59411;BME280;45215;32.610;-115.482;2022-09-16T06:29:03;100879.38;;;21.27;44.31
59411;BME280;45215;32.610;-115.482;2022-09-16T06:31:30;100862.94;;;20.91;42.80
59411;BME280;45215;32.610;-115.482;2022-09-16T06:33:57;100866.88;;;21.11;47.40
59411;BME280;45215;32.610;-115.482;2022-09-16T06:36:26;100873.00;;;21.43;49.71
59411;BME280;45215;32.610;-115.482;2022-09-16T06:38:52;100873.13;;;21.27;43.89
59411;BME280;45215;32.610;-115.482;2022-09-16T06:41:18;100865.59;;;20.99;44.81
59411;BME280;45215;32.610;-115.482;2022-09-16T06:43:44;100865.25;;;21.25;48.84
59411;BME280;45215;32.610;-115.482;2022-09-16T06:46:11;100861.47;;;21.49;48.48
59411;BME280;45215;32.610;-115.482;2022-09-16T06:48:46;100862.25;;;21.20;43.41
59411;BME280;45215;32.610;-115.482;2022-09-16T06:51:15;100864.88;;;21.05;45.94
59411;BME280;45215;32.610;-115.482;2022-09-16T06:53:41;100856.41;;;21.31;48.88
59411;BME280;45215;32.610;-115.482;2022-09-16T06:56:09;100855.91;;;21.51;47.69
59411;BME280;45215;32.610;-115.482;2022-09-16T06:58:37;100856.00;;;21.20;43.34
59411;BME280;45215;32.610;-115.482;2022-09-16T07:01:10;100849.53;;;21.06;47.00
59411;BME280;45215;32.610;-115.482;2022-09-16T07:03:40;100863.94;;;21.36;49.73
59411;BME280;45215;32.610;-115.482;2022-09-16T07:06:06;100863.03;;;21.44;46.38
59411;BME280;45215;32.610;-115.482;2022-09-16T07:08:33;100859.13;;;21.08;43.25
59411;BME280;45215;32.610;-115.482;2022-09-16T07:11:01;100858.22;;;21.16;48.00
59411;BME280;45215;32.610;-115.482;2022-09-16T07:13:27;100859.34;;;21.45;50.22
59411;BME280;45215;32.610;-115.482;2022-09-16T07:15:53;100857.72;;;21.35;44.70
59411;BME280;45215;32.610;-115.482;2022-09-16T07:18:19;100858.63;;;21.05;45.55
59411;BME280;45215;32.610;-115.482;2022-09-16T07:20:45;100873.97;;;21.27;49.16
59411;BME280;45215;32.610;-115.482;2022-09-16T07:23:11;100864.84;;;21.51;49.49
59411;BME280;45215;32.610;-115.482;2022-09-16T07:25:37;100868.56;;;21.27;44.21
59411;BME280;45215;32.610;-115.482;2022-09-16T07:28:02;100864.63;;;21.15;46.83
59411;BME280;45215;32.610;-115.482;2022-09-16T07:30:28;100861.53;;;21.41;49.75
59411;BME280;45215;32.610;-115.482;2022-09-16T07:32:55;100850.50;;;21.51;47.14
59411;BME280;45215;32.610;-115.482;2022-09-16T07:35:21;100855.03;;;21.12;43.49
59411;BME280;45215;32.610;-115.482;2022-09-16T07:37:47;100853.38;;;21.11;47.94
59411;BME280;45215;32.610;-115.482;2022-09-16T07:40:12;100855.97;;;21.43;49.85
59411;BME280;45215;32.610;-115.482;2022-09-16T07:42:39;100858.00;;;21.41;46.06
59411;BME280;45215;32.610;-115.482;2022-09-16T07:45:06;100848.16;;;21.02;44.66
59411;BME280;45215;32.610;-115.482;2022-09-16T07:47:32;100857.22;;;21.17;49.09
59411;BME280;45215;32.610;-115.482;2022-09-16T07:49:58;100853.94;;;21.45;50.73
59411;BME280;45215;32.610;-115.482;2022-09-16T07:52:24;100851.38;;;21.28;45.38
59411;BME280;45215;32.610;-115.482;2022-09-16T07:54:56;100843.50;;;20.95;45.67
59411;BME280;45215;32.610;-115.482;2022-09-16T07:57:23;100852.13;;;21.22;49.53
59411;BME280;45215;32.610;-115.482;2022-09-16T07:59:49;100847.81;;;21.51;50.90
59411;BME280;45215;32.610;-115.482;2022-09-16T08:02:15;100849.69;;;21.27;44.83
59411;BME280;45215;32.610;-115.482;2022-09-16T08:04:41;100853.94;;;20.99;46.40
59411;BME280;45215;32.610;-115.482;2022-09-16T08:07:07;100848.38;;;21.23;50.26
59411;BME280;45215;32.610;-115.482;2022-09-16T08:09:33;100846.13;;;21.50;51.20
59411;BME280;45215;32.610;-115.482;2022-09-16T08:12:00;100847.97;;;21.34;45.57
59411;BME280;45215;32.610;-115.482;2022-09-16T08:14:26;100847.22;;;21.03;46.09
59411;BME280;45215;32.610;-115.482;2022-09-16T08:16:52;100845.69;;;21.23;49.98
59411;BME280;45215;32.610;-115.482;2022-09-16T08:19:18;100852.56;;;21.49;51.54
59411;BME280;45215;32.610;-115.482;2022-09-16T08:21:47;100847.00;;;21.27;45.43
59411;BME280;45215;32.610;-115.482;2022-09-16T08:24:13;100837.06;;;21.05;46.97
59411;BME280;45215;32.610;-115.482;2022-09-16T08:26:40;100855.75;;;21.29;49.97
59411;BME280;45215;32.610;-115.482;2022-09-16T08:29:06;100846.13;;;21.50;50.42
59411;BME280;45215;32.610;-115.482;2022-09-16T08:31:32;100835.63;;;21.17;44.61
59411;BME280;45215;32.610;-115.482;2022-09-16T08:33:58;100845.16;;;21.05;48.27
59411;BME280;45215;32.610;-115.482;2022-09-16T08:36:24;100849.16;;;21.32;50.46
59411;BME280;45215;32.610;-115.482;2022-09-16T08:38:51;100855.25;;;21.49;49.04
59411;BME280;45215;32.610;-115.482;2022-09-16T08:49:05;100851.59;;;21.42;47.96
59411;BME280;45215;32.610;-115.482;2022-09-16T08:51:35;100847.69;;;20.98;44.97
59411;BME280;45215;32.610;-115.482;2022-09-16T08:54:03;100849.84;;;21.11;49.85
59411;BME280;45215;32.610;-115.482;2022-09-16T08:56:31;100847.41;;;21.39;51.78
59411;BME280;45215;32.610;-115.482;2022-09-16T08:59:01;100850.06;;;21.24;45.93
59411;BME280;45215;32.610;-115.482;2022-09-16T09:01:31;100839.19;;;20.86;46.22
59411;BME280;45215;32.610;-115.482;2022-09-16T09:03:59;100842.38;;;21.13;50.32
59411;BME280;45215;32.610;-115.482;2022-09-16T09:12:10;100836.97;;;20.90;49.00
59411;BME280;45215;32.610;-115.482;2022-09-16T09:14:58;100840.75;;;21.27;51.67
59411;BME280;45215;32.610;-115.482;2022-09-16T09:25:20;100831.41;;;21.37;51.99
59411;BME280;45215;32.610;-115.482;2022-09-16T09:30:33;100827.63;;;20.78;48.12
59411;BME280;45215;32.610;-115.482;2022-09-16T09:35:51;100833.06;;;21.38;51.89
59411;BME280;45215;32.610;-115.482;2022-09-16T09:41:02;100832.41;;;20.90;49.67
59411;BME280;45215;32.610;-115.482;2022-09-16T09:43:36;100840.66;;;21.20;51.67
59411;BME280;45215;32.610;-115.482;2022-09-16T09:46:11;100841.34;;;21.37;49.60
59411;BME280;45215;32.610;-115.482;2022-09-16T09:48:45;100833.44;;;20.89;45.47
59411;BME280;45215;32.610;-115.482;2022-09-16T09:51:35;100838.94;;;20.96;50.63
59411;BME280;45215;32.610;-115.482;2022-09-16T09:54:01;100838.91;;;21.27;52.36
59411;BME280;45215;32.610;-115.482;2022-09-16T09:56:29;100847.13;;;21.34;48.69
59411;BME280;45215;32.610;-115.482;2022-09-16T09:58:59;100841.88;;;20.86;46.10
59411;BME280;45215;32.610;-115.482;2022-09-16T10:01:26;100844.84;;;21.00;50.74
59411;BME280;45215;32.610;-115.482;2022-09-16T10:03:52;100847.00;;;21.27;52.31
59411;BME280;45215;32.610;-115.482;2022-09-16T10:06:22;100844.28;;;21.27;48.28
59411;BME280;45215;32.610;-115.482;2022-09-16T10:08:50;100832.50;;;20.82;47.41
59411;BME280;45215;32.610;-115.482;2022-09-16T10:11:26;100839.25;;;21.01;51.67
59411;BME280;45215;32.610;-115.482;2022-09-16T10:13:54;100835.84;;;21.30;52.41
59411;BME280;45215;32.610;-115.482;2022-09-16T10:16:24;100839.00;;;21.19;47.18
59411;BME280;45215;32.610;-115.482;2022-09-16T10:18:55;100835.88;;;20.76;48.40
59411;BME280;45215;32.610;-115.482;2022-09-16T10:21:22;100841.81;;;21.03;51.79
59411;BME280;45215;32.610;-115.482;2022-09-16T10:23:55;100843.94;;;21.30;52.73
59411;BME280;45215;32.610;-115.482;2022-09-16T10:26:22;100837.34;;;21.10;46.97
59411;BME280;45215;32.610;-115.482;2022-09-16T10:28:52;100838.53;;;20.84;49.21
59411;BME280;45215;32.610;-115.482;2022-09-16T10:31:18;100840.06;;;21.10;52.00
59411;BME280;45215;32.610;-115.482;2022-09-16T10:33:44;100844.22;;;21.35;53.28
59411;BME280;45215;32.610;-115.482;2022-09-16T10:36:16;100838.75;;;21.06;46.58
59411;BME280;45215;32.610;-115.482;2022-09-16T10:38:45;100832.97;;;20.86;49.97
59411;BME280;45215;32.610;-115.482;2022-09-16T10:41:16;100832.94;;;21.17;52.87
59411;BME280;45215;32.610;-115.482;2022-09-16T10:43:50;100838.47;;;21.38;51.87
59411;BME280;45215;32.610;-115.482;2022-09-16T10:46:16;100829.56;;;20.92;46.33
59411;BME280;45215;32.610;-115.482;2022-09-16T10:48:43;100835.59;;;20.94;51.16
59411;BME280;45215;32.610;-115.482;2022-09-16T10:51:20;100835.25;;;21.20;52.50
59411;BME280;45215;32.610;-115.482;2022-09-16T10:53:50;100834.09;;;21.37;50.84
59411;BME280;45215;32.610;-115.482;2022-09-16T10:56:18;100830.75;;;20.89;46.75
59411;BME280;45215;32.610;-115.482;2022-09-16T10:58:44;100833.38;;;20.98;51.62
59411;BME280;45215;32.610;-115.482;2022-09-16T11:04:10;100845.94;;;21.36;50.57
59411;BME280;45215;32.610;-115.482;2022-09-16T11:09:27;100842.44;;;21.05;52.64
59411;BME280;45215;32.610;-115.482;2022-09-16T11:14:37;100841.38;;;21.14;47.88
59411;BME280;45215;32.610;-115.482;2022-09-16T11:19:57;100842.22;;;21.14;53.28
59411;BME280;45215;32.610;-115.482;2022-09-16T11:22:34;100843.84;;;21.38;53.58
59411;BME280;45215;32.610;-115.482;2022-09-16T11:30:08;100844.03;;;21.22;53.81
59411;BME280;45215;32.610;-115.482;2022-09-16T12:00:51;100868.56;;;21.27;54.86
59411;BME280;45215;32.610;-115.482;2022-09-16T12:05:55;100873.84;;;20.66;51.05
59411;BME280;45215;32.610;-115.482;2022-09-16T12:08:43;100881.56;;;21.01;54.38
59411;BME280;45215;32.610;-115.482;2022-09-16T12:13:40;100878.34;;;20.82;47.75
59411;BME280;45215;32.610;-115.482;2022-09-16T12:16:12;100888.38;;;20.65;52.62
59411;BME280;45215;32.610;-115.482;2022-09-16T12:18:40;100882.59;;;21.00;54.99
59411;BME280;45215;32.610;-115.482;2022-09-16T12:23:54;100891.19;;;20.72;47.74
59411;BME280;45215;32.610;-115.482;2022-09-16T12:26:25;100890.91;;;20.59;52.62
59411;BME280;45215;32.610;-115.482;2022-09-16T12:28:59;100897.44;;;20.95;55.00
59411;BME280;45215;32.610;-115.482;2022-09-16T12:31:32;100899.66;;;21.23;55.66
59411;BME280;45215;32.610;-115.482;2022-09-16T12:34:09;100900.59;;;20.76;48.27
59411;BME280;45215;32.610;-115.482;2022-09-16T12:36:37;100907.06;;;20.59;53.05
59411;BME280;45215;32.610;-115.482;2022-09-16T12:39:04;100910.28;;;20.93;54.87
59411;BME280;45215;32.610;-115.482;2022-09-16T12:50:07;100912.63;;;20.97;55.04
59411;BME280;45215;32.610;-115.482;2022-09-16T13:03:13;100913.81;;;21.25;55.50
59411;BME280;45215;32.610;-115.482;2022-09-16T13:05:34;100917.31;;;20.71;48.55
59411;BME280;45215;32.610;-115.482;2022-09-16T13:08:02;100927.25;;;20.71;53.92
59411;BME280;45215;32.610;-115.482;2022-09-16T13:10:30;100920.34;;;21.00;55.33
59411;BME280;45215;32.610;-115.482;2022-09-16T13:12:57;100932.84;;;21.24;55.83
59411;BME280;45215;32.610;-115.482;2022-09-16T13:17:50;100935.06;;;20.58;53.19
59411;BME280;45215;32.610;-115.482;2022-09-16T13:20:39;100937.94;;;20.87;54.93
59411;BME280;45215;32.610;-115.482;2022-09-16T13:23:14;100947.22;;;21.16;55.81
59411;BME280;45215;32.610;-115.482;2022-09-16T13:26:15;100945.19;;;20.87;48.98
59411;BME280;45215;32.610;-115.482;2022-09-16T13:28:37;100948.34;;;20.59;53.51
59411;BME280;45215;32.610;-115.482;2022-09-16T13:34:12;100959.72;;;21.17;55.77
59411;BME280;45215;32.610;-115.482;2022-09-16T13:36:30;100965.59;;;20.81;48.93
59411;BME280;45215;32.610;-115.482;2022-09-16T13:38:57;100967.00;;;20.69;53.46
59411;BME280;45215;32.610;-115.482;2022-09-16T13:41:33;100958.47;;;20.97;55.45
59411;BME280;45215;32.610;-115.482;2022-09-16T13:44:00;100954.44;;;21.24;56.34
59411;BME280;45215;32.610;-115.482;2022-09-16T13:46:30;100954.09;;;20.87;49.28
59411;BME280;45215;32.610;-115.482;2022-09-16T13:51:29;100968.38;;;20.96;55.52
59411;BME280;45215;32.610;-115.482;2022-09-16T13:53:56;100969.31;;;21.20;55.88
59411;BME280;45215;32.610;-115.482;2022-09-16T14:07:41;100986.47;;;20.87;48.86
59411;BME280;45215;32.610;-115.482;2022-09-16T14:12:35;100999.22;;;21.02;55.84
59411;BME280;45215;32.610;-115.482;2022-09-16T14:15:03;100997.25;;;21.27;56.44
59411;BME280;45215;32.610;-115.482;2022-09-16T14:17:36;100992.44;;;20.75;48.86
59411;BME280;45215;32.610;-115.482;2022-09-16T14:20:03;100999.75;;;20.58;54.22
59411;BME280;45215;32.610;-115.482;2022-09-16T14:22:29;101005.19;;;20.89;55.99
59411;BME280;45215;32.610;-115.482;2022-09-16T14:24:56;100994.13;;;21.15;56.62
59411;BME280;45215;32.610;-115.482;2022-09-16T14:29:54;101013.22;;;20.49;52.93
59411;BME280;45215;32.610;-115.482;2022-09-16T14:32:22;101009.41;;;20.83;55.85
59411;BME280;45215;32.610;-115.482;2022-09-16T14:34:48;101011.09;;;21.24;55.95
59411;BME280;45215;32.610;-115.482;2022-09-16T14:37:16;101009.00;;;21.11;51.02
59411;BME280;45215;32.610;-115.482;2022-09-16T14:39:43;101005.50;;;20.46;50.55
59411;BME280;45215;32.610;-115.482;2022-09-16T14:42:13;101012.53;;;20.64;55.27
59411;BME280;45215;32.610;-115.482;2022-09-16T14:44:44;101020.66;;;20.95;56.98
59411;BME280;45215;32.610;-115.482;2022-09-16T14:49:37;101024.41;;;20.14;51.19
59411;BME280;45215;32.610;-115.482;2022-09-16T14:52:03;101021.81;;;20.45;55.69
59411;BME280;45215;32.610;-115.482;2022-09-16T14:54:29;101022.56;;;20.78;56.42
59411;BME280;45215;32.610;-115.482;2022-09-16T14:59:22;101023.03;;;19.85;51.48
59411;BME280;45215;32.610;-115.482;2022-09-16T15:01:50;101018.34;;;20.28;55.50
59411;BME280;45215;32.610;-115.482;2022-09-16T15:04:18;101025.84;;;20.65;56.70
59411;BME280;45215;32.610;-115.482;2022-09-16T15:06:48;101017.66;;;20.34;50.08
59411;BME280;45215;32.610;-115.482;2022-09-16T15:09:24;101018.31;;;19.79;49.58
59411;BME280;45215;32.610;-115.482;2022-09-16T15:11:57;101023.38;;;20.15;54.91
59411;BME280;45215;32.610;-115.482;2022-09-16T15:14:24;101021.81;;;20.53;55.66
59411;BME280;45215;32.610;-115.482;2022-09-16T15:16:51;101019.31;;;20.11;48.89
59411;BME280;45215;32.610;-115.482;2022-09-16T15:19:20;101035.50;;;19.70;49.87
59411;BME280;45215;32.610;-115.482;2022-09-16T15:21:47;101031.47;;;20.07;54.56
59411;BME280;45215;32.610;-115.482;2022-09-16T15:24:23;101031.59;;;20.46;56.27
59411;BME280;45215;32.610;-115.482;2022-09-16T15:26:51;101024.56;;;20.37;50.51
59411;BME280;45215;32.610;-115.482;2022-09-16T15:31:47;101034.16;;;20.31;55.40
59411;BME280;45215;32.610;-115.482;2022-09-16T15:36:44;101032.81;;;20.02;48.55
59411;BME280;45215;32.610;-115.482;2022-09-16T15:42:16;101030.09;;;20.43;56.20